sensor_id;sensor_type;location;lat;lon;timestamp;pressure;altitude;pressure_sealevel;temperature;humidity
44872;BME280;30602;51.060;17.226;2023-05-25T00:02:12;102187.34;;;8.68;100.00
44872;BME280;30602;51.060;17.226;2023-05-25T00:06:32;102186.23;;;8.52;100.00
44872;BME280;30602;51.060;17.226;2023-05-25T00:10:23;102183.19;;;8.47;100.00
44872;BME280;30602;51.060;17.226;2023-05-25T00:14:01;102184.32;;;8.31;100.00
44872;BME280;30602;51.060;17.226;2023-05-25T00:17:35;102188.33;;;8.11;100.00
44872;BME280;30602;51.060;17.226;2023-05-25T00:21:08;102191.02;;;8.11;100.00
44872;BME280;30602;51.060;17.226;2023-05-25T00:29:05;102189.38;;;8.05;100.00
44872;BME280;30602;51.060;17.226;2023-05-25T00:32:36;102194.23;;;7.99;100.00
44872;BME280;30602;51.060;17.226;2023-05-25T00:35:57;102190.03;;;7.84;100.00
44872;BME280;30602;51.060;17.226;2023-05-25T00:40:11;102190.00;;;7.59;100.00
44872;BME280;30602;51.060;17.226;2023-05-25T00:43:45;102203.78;;;7.53;100.00
44872;BME280;30602;51.060;17.226;2023-05-25T00:47:07;102204.98;;;7.55;100.00
44872;BME280;30602;51.060;17.226;2023-05-25T00:51:06;102209.01;;;7.59;100.00
44872;BME280;30602;51.060;17.226;2023-05-25T00:55:43;102211.48;;;7.47;100.00
44872;BME280;30602;51.060;17.226;2023-05-25T00:59:38;102209.92;;;7.37;100.00
44872;BME280;30602;51.060;17.226;2023-05-25T01:03:40;102215.23;;;7.37;100.00
44872;BME280;30602;51.060;17.226;2023-05-25T01:07:38;102210.05;;;7.44;100.00
44872;BME280;30602;51.060;17.226;2023-05-25T01:11:36;102212.18;;;7.54;100.00
44872;BME280;30602;51.060;17.226;2023-05-25T01:15:32;102210.13;;;7.80;100.00
44872;BME280;30602;51.060;17.226;2023-05-25T01:19:25;102216.81;;;7.83;100.00
44872;BME280;30602;51.060;17.226;2023-05-25T01:23:13;102216.42;;;7.74;100.00
44872;BME280;30602;51.060;17.226;2023-05-25T01:26:59;102224.44;;;7.57;100.00
44872;BME280;30602;51.060;17.226;2023-05-25T01:31:04;102213.11;;;7.72;100.00
44872;BME280;30602;51.060;17.226;2023-05-25T01:35:01;102219.09;;;7.69;100.00
44872;BME280;30602;51.060;17.226;2023-05-25T01:38:45;102225.98;;;7.61;100.00
44872;BME280;30602;51.060;17.226;2023-05-25T01:42:13;102225.95;;;7.64;100.00
44872;BME280;30602;51.060;17.226;2023-05-25T01:46:40;102229.65;;;7.51;100.00
44872;BME280;30602;51.060;17.226;2023-05-25T01:50:40;102231.38;;;7.53;100.00
44872;BME280;30602;51.060;17.226;2023-05-25T01:54:24;102227.31;;;7.57;100.00
44872;BME280;30602;51.060;17.226;2023-05-25T01:58:38;102227.37;;;7.60;100.00
44872;BME280;30602;51.060;17.226;2023-05-25T02:02:53;102224.12;;;7.78;100.00
44872;BME280;30602;51.060;17.226;2023-05-25T02:06:37;102231.23;;;7.93;100.00
44872;BME280;30602;51.060;17.226;2023-05-25T02:10:22;102237.46;;;7.95;100.00
44872;BME280;30602;51.060;17.226;2023-05-25T02:14:13;102232.67;;;7.89;100.00
44872;BME280;30602;51.060;17.226;2023-05-25T02:18:39;102241.21;;;7.86;100.00
44872;BME280;30602;51.060;17.226;2023-05-25T02:22:57;102235.73;;;7.84;100.00
44872;BME280;30602;51.060;17.226;2023-05-25T02:26:42;102234.66;;;7.83;100.00
44872;BME280;30602;51.060;17.226;2023-05-25T02:31:20;102235.91;;;7.89;100.00
44872;BME280;30602;51.060;17.226;2023-05-25T02:34:40;102233.91;;;8.01;100.00
44872;BME280;30602;51.060;17.226;2023-05-25T02:41:26;102235.98;;;8.09;100.00
44872;BME280;30602;51.060;17.226;2023-05-25T02:45:39;102234.88;;;8.05;100.00
44872;BME280;30602;51.060;17.226;2023-05-25T02:49:28;102233.16;;;8.17;100.00
44872;BME280;30602;51.060;17.226;2023-05-25T02:53:05;102232.31;;;8.24;100.00
44872;BME280;30602;51.060;17.226;2023-05-25T02:56:23;102232.77;;;8.24;100.00
44872;BME280;30602;51.060;17.226;2023-05-25T02:59:49;102224.22;;;8.31;100.00
44872;BME280;30602;51.060;17.226;2023-05-25T03:03:32;102226.70;;;8.41;100.00
44872;BME280;30602;51.060;17.226;2023-05-25T03:07:16;102225.20;;;8.39;100.00
44872;BME280;30602;51.060;17.226;2023-05-25T03:10:39;102225.95;;;8.35;100.00
44872;BME280;30602;51.060;17.226;2023-05-25T03:14:16;102212.35;;;8.29;100.00
44872;BME280;30602;51.060;17.226;2023-05-25T03:17:37;102227.98;;;8.37;100.00
44872;BME280;30602;51.060;17.226;2023-05-25T03:21:20;102242.92;;;8.38;100.00
44872;BME280;30602;51.060;17.226;2023-05-25T03:25:08;102244.19;;;8.35;100.00
44872;BME280;30602;51.060;17.226;2023-05-25T03:28:49;102251.23;;;8.40;100.00
44872;BME280;30602;51.060;17.226;2023-05-25T03:32:11;102252.45;;;8.57;100.00
44872;BME280;30602;51.060;17.226;2023-05-25T03:35:53;102258.01;;;8.68;100.00
44872;BME280;30602;51.060;17.226;2023-05-25T03:39:56;102259.98;;;8.74;100.00
44872;BME280;30602;51.060;17.226;2023-05-25T03:43:31;102264.20;;;8.78;100.00
44872;BME280;30602;51.060;17.226;2023-05-25T03:47:07;102267.61;;;8.85;100.00
44872;BME280;30602;51.060;17.226;2023-05-25T03:50:50;102267.67;;;8.91;100.00
44872;BME280;30602;51.060;17.226;2023-05-25T03:54:12;102260.33;;;9.08;100.00
44872;BME280;30602;51.060;17.226;2023-05-25T03:58:11;102258.38;;;9.10;100.00
44872;BME280;30602;51.060;17.226;2023-05-25T04:01:41;102261.59;;;9.15;100.00
44872;BME280;30602;51.060;17.226;2023-05-25T04:05:53;102259.17;;;9.15;100.00
44872;BME280;30602;51.060;17.226;2023-05-25T04:09:49;102261.10;;;9.26;100.00
44872;BME280;30602;51.060;17.226;2023-05-25T04:13:59;102262.56;;;9.41;100.00
44872;BME280;30602;51.060;17.226;2023-05-25T04:17:41;102268.65;;;9.51;100.00
44872;BME280;30602;51.060;17.226;2023-05-25T04:21:25;102270.82;;;9.52;100.00
44872;BME280;30602;51.060;17.226;2023-05-25T04:24:49;102270.12;;;9.53;100.00
44872;BME280;30602;51.060;17.226;2023-05-25T04:29:27;102273.34;;;9.50;100.00
44872;BME280;30602;51.060;17.226;2023-05-25T04:33:11;102276.48;;;9.56;100.00
44872;BME280;30602;51.060;17.226;2023-05-25T04:36:30;102284.06;;;9.58;100.00
44872;BME280;30602;51.060;17.226;2023-05-25T04:40:25;102285.23;;;9.65;100.00
44872;BME280;30602;51.060;17.226;2023-05-25T04:44:10;102285.36;;;9.68;100.00
44872;BME280;30602;51.060;17.226;2023-05-25T04:47:50;102286.49;;;9.74;100.00
44872;BME280;30602;51.060;17.226;2023-05-25T04:51:41;102278.14;;;9.76;100.00
44872;BME280;30602;51.060;17.226;2023-05-25T04:55:13;102283.42;;;9.84;100.00
44872;BME280;30602;51.060;17.226;2023-05-25T04:59:16;102281.52;;;9.83;100.00
44872;BME280;30602;51.060;17.226;2023-05-25T05:06:57;102289.38;;;10.04;100.00
44872;BME280;30602;51.060;17.226;2023-05-25T05:10:46;102288.48;;;10.07;100.00
44872;BME280;30602;51.060;17.226;2023-05-25T05:14:29;102285.31;;;10.06;100.00
44872;BME280;30602;51.060;17.226;2023-05-25T05:18:19;102296.45;;;10.13;100.00
44872;BME280;30602;51.060;17.226;2023-05-25T05:22:12;102302.24;;;10.16;100.00
44872;BME280;30602;51.060;17.226;2023-05-25T05:25:37;102305.43;;;10.14;100.00
44872;BME280;30602;51.060;17.226;2023-05-25T05:29:19;102290.17;;;10.17;100.00
44872;BME280;30602;51.060;17.226;2023-05-25T05:33:02;102309.91;;;10.34;100.00
44872;BME280;30602;51.060;17.226;2023-05-25T05:40:44;102311.45;;;10.32;100.00
44872;BME280;30602;51.060;17.226;2023-05-25T05:44:32;102315.24;;;10.39;100.00
44872;BME280;30602;51.060;17.226;2023-05-25T05:48:42;102310.30;;;10.44;100.00
44872;BME280;30602;51.060;17.226;2023-05-25T05:52:23;102316.35;;;10.53;100.00
44872;BME280;30602;51.060;17.226;2023-05-25T06:00:22;102323.39;;;10.58;99.96
44872;BME280;30602;51.060;17.226;2023-05-25T06:04:05;102325.14;;;10.58;99.76
44872;BME280;30602;51.060;17.226;2023-05-25T06:07:46;102327.55;;;10.59;99.76
44872;BME280;30602;51.060;17.226;2023-05-25T06:11:36;102329.79;;;10.70;99.97
44872;BME280;30602;51.060;17.226;2023-05-25T06:15:20;102334.41;;;10.73;98.87
44872;BME280;30602;51.060;17.226;2023-05-25T06:19:09;102327.06;;;10.80;99.93
44872;BME280;30602;51.060;17.226;2023-05-25T06:22:44;102327.20;;;10.83;99.78
44872;BME280;30602;51.060;17.226;2023-05-25T06:26:14;102327.34;;;10.85;98.45
44872;BME280;30602;51.060;17.226;2023-05-25T06:29:36;102327.44;;;10.89;98.13
44872;BME280;30602;51.060;17.226;2023-05-25T06:32:59;102325.22;;;10.96;99.02
44872;BME280;30602;51.060;17.226;2023-05-25T06:36:44;102325.09;;;11.07;98.09
44872;BME280;30602;51.060;17.226;2023-05-25T06:40:06;102321.59;;;11.20;97.57
44872;BME280;30602;51.060;17.226;2023-05-25T06:43:52;102329.54;;;11.15;96.39
44872;BME280;30602;51.060;17.226;2023-05-25T06:47:15;102326.24;;;11.20;96.28
44872;BME280;30602;51.060;17.226;2023-05-25T06:54:32;102326.91;;;11.44;95.00
44872;BME280;30602;51.060;17.226;2023-05-25T06:58:17;102322.02;;;11.44;95.24
44872;BME280;30602;51.060;17.226;2023-05-25T07:01:41;102328.05;;;11.65;94.72
44872;BME280;30602;51.060;17.226;2023-05-25T07:05:15;102326.87;;;11.72;93.81
44872;BME280;30602;51.060;17.226;2023-05-25T07:13:08;102317.45;;;11.87;93.48
44872;BME280;30602;51.060;17.226;2023-05-25T07:16:31;102319.77;;;11.98;92.65
44872;BME280;30602;51.060;17.226;2023-05-25T07:19:56;102321.65;;;12.07;93.13
44872;BME280;30602;51.060;17.226;2023-05-25T07:27:38;102324.23;;;12.26;92.96
44872;BME280;30602;51.060;17.226;2023-05-25T07:31:38;102320.73;;;12.41;93.09
44872;BME280;30602;51.060;17.226;2023-05-25T07:35:32;102324.98;;;12.41;92.11
44872;BME280;30602;51.060;17.226;2023-05-25T07:39:00;102326.38;;;12.61;92.83
44872;BME280;30602;51.060;17.226;2023-05-25T07:42:27;102325.91;;;12.61;91.20
44872;BME280;30602;51.060;17.226;2023-05-25T07:46:38;102327.40;;;12.68;91.12
44872;BME280;30602;51.060;17.226;2023-05-25T07:50:21;102321.82;;;12.79;89.58
44872;BME280;30602;51.060;17.226;2023-05-25T07:53:48;102328.42;;;12.84;89.49
44872;BME280;30602;51.060;17.226;2023-05-25T07:57:15;102328.79;;;12.87;90.11
44872;BME280;30602;51.060;17.226;2023-05-25T08:00:39;102332.41;;;12.84;89.20
44872;BME280;30602;51.060;17.226;2023-05-25T08:04:35;102336.20;;;12.95;91.29
44872;BME280;30602;51.060;17.226;2023-05-25T08:07:55;102338.80;;;12.99;89.70
44872;BME280;30602;51.060;17.226;2023-05-25T08:11:34;102337.61;;;13.13;90.81
44872;BME280;30602;51.060;17.226;2023-05-25T08:15:25;102335.88;;;13.16;90.37
44872;BME280;30602;51.060;17.226;2023-05-25T08:19:42;102342.44;;;13.31;90.77
44872;BME280;30602;51.060;17.226;2023-05-25T08:23:24;102337.93;;;13.39;91.46
44872;BME280;30602;51.060;17.226;2023-05-25T08:27:56;102328.75;;;13.60;92.15
44872;BME280;30602;51.060;17.226;2023-05-25T08:32:26;102323.02;;;13.87;90.54
44872;BME280;30602;51.060;17.226;2023-05-25T08:36:16;102323.26;;;13.84;86.19
44872;BME280;30602;51.060;17.226;2023-05-25T08:39:40;102325.37;;;13.96;86.44
44872;BME280;30602;51.060;17.226;2023-05-25T08:47:06;102322.03;;;13.97;85.45
44872;BME280;30602;51.060;17.226;2023-05-25T08:50:33;102326.81;;;13.94;85.31
44872;BME280;30602;51.060;17.226;2023-05-25T08:54:22;102337.25;;;13.94;85.80
44872;BME280;30602;51.060;17.226;2023-05-25T08:58:16;102344.99;;;13.96;85.75
44872;BME280;30602;51.060;17.226;2023-05-25T09:01:45;102344.34;;;13.90;84.45
44872;BME280;30602;51.060;17.226;2023-05-25T09:05:33;102341.84;;;14.02;84.85
44872;BME280;30602;51.060;17.226;2023-05-25T09:09:31;102343.34;;;14.04;84.99
44872;BME280;30602;51.060;17.226;2023-05-25T09:13:18;102346.61;;;14.24;86.50
44872;BME280;30602;51.060;17.226;2023-05-25T09:17:00;102349.46;;;14.18;85.26
44872;BME280;30602;51.060;17.226;2023-05-25T09:20:23;102350.44;;;14.10;84.01
44872;BME280;30602;51.060;17.226;2023-05-25T09:24:33;102350.13;;;14.11;84.38
44872;BME280;30602;51.060;17.226;2023-05-25T09:28:20;102346.04;;;14.15;83.62
44872;BME280;30602;51.060;17.226;2023-05-25T09:32:34;102345.40;;;14.38;82.85
44872;BME280;30602;51.060;17.226;2023-05-25T09:36:18;102341.71;;;14.60;81.32
44872;BME280;30602;51.060;17.226;2023-05-25T09:40:08;102339.47;;;14.61;80.50
44872;BME280;30602;51.060;17.226;2023-05-25T09:44:07;102336.33;;;14.85;79.99
44872;BME280;30602;51.060;17.226;2023-05-25T09:47:54;102329.98;;;15.18;78.81
44872;BME280;30602;51.060;17.226;2023-05-25T09:51:20;102327.99;;;15.51;78.63
44872;BME280;30602;51.060;17.226;2023-05-25T09:55:02;102332.25;;;15.44;77.47
44872;BME280;30602;51.060;17.226;2023-05-25T10:03:08;102333.98;;;15.48;76.30
44872;BME280;30602;51.060;17.226;2023-05-25T10:07:09;102336.49;;;15.43;76.46
44872;BME280;30602;51.060;17.226;2023-05-25T10:10:51;102338.98;;;15.39;77.23
44872;BME280;30602;51.060;17.226;2023-05-25T10:14:50;102338.58;;;15.34;75.10
44872;BME280;30602;51.060;17.226;2023-05-25T10:18:58;102338.98;;;15.50;77.00
44872;BME280;30602;51.060;17.226;2023-05-25T10:26:10;102334.39;;;15.73;74.39
44872;BME280;30602;51.060;17.226;2023-05-25T10:29:39;102336.00;;;15.86;74.19
44872;BME280;30602;51.060;17.226;2023-05-25T10:33:51;102332.86;;;15.94;73.48
44872;BME280;30602;51.060;17.226;2023-05-25T10:37:26;102332.00;;;16.04;71.95
44872;BME280;30602;51.060;17.226;2023-05-25T10:40:52;102328.04;;;16.39;72.41
44872;BME280;30602;51.060;17.226;2023-05-25T10:44:38;102323.34;;;16.57;71.38
44872;BME280;30602;51.060;17.226;2023-05-25T10:48:22;102320.34;;;16.43;70.04
44872;BME280;30602;51.060;17.226;2023-05-25T10:52:09;102322.63;;;16.52;70.35
44872;BME280;30602;51.060;17.226;2023-05-25T10:55:42;102320.79;;;16.59;70.03
44872;BME280;30602;51.060;17.226;2023-05-25T10:59:26;102320.32;;;16.59;69.96
44872;BME280;30602;51.060;17.226;2023-05-25T11:03:00;102322.07;;;16.49;69.71
44872;BME280;30602;51.060;17.226;2023-05-25T11:07:29;102321.77;;;16.70;72.56
44872;BME280;30602;51.060;17.226;2023-05-25T11:10:52;102316.80;;;16.62;72.02
44872;BME280;30602;51.060;17.226;2023-05-25T11:14:40;102322.45;;;16.65;71.62
44872;BME280;30602;51.060;17.226;2023-05-25T11:18:04;102314.84;;;16.63;71.99
44872;BME280;30602;51.060;17.226;2023-05-25T11:22:32;102311.42;;;16.85;73.63
44872;BME280;30602;51.060;17.226;2023-05-25T11:26:20;102310.25;;;16.84;71.29
44872;BME280;30602;51.060;17.226;2023-05-25T11:30:19;102310.98;;;16.71;69.66
44872;BME280;30602;51.060;17.226;2023-05-25T11:34:01;102293.48;;;17.09;70.98
44872;BME280;30602;51.060;17.226;2023-05-25T11:37:49;102296.18;;;17.36;69.68
44872;BME280;30602;51.060;17.226;2023-05-25T11:41:16;102294.91;;;17.52;68.83
44872;BME280;30602;51.060;17.226;2023-05-25T11:45:13;102292.74;;;17.57;68.27
44872;BME280;30602;51.060;17.226;2023-05-25T11:49:15;102280.91;;;17.71;69.32
44872;BME280;30602;51.060;17.226;2023-05-25T11:53:08;102278.67;;;17.64;68.33
44872;BME280;30602;51.060;17.226;2023-05-25T11:57:16;102282.97;;;17.36;68.08
44872;BME280;30602;51.060;17.226;2023-05-25T12:01:31;102280.84;;;17.19;68.42
44872;BME280;30602;51.060;17.226;2023-05-25T12:05:38;102281.59;;;17.22;70.90
44872;BME280;30602;51.060;17.226;2023-05-25T12:09:02;102278.34;;;17.31;71.30
44872;BME280;30602;51.060;17.226;2023-05-25T12:12:29;102277.87;;;17.38;69.89
44872;BME280;30602;51.060;17.226;2023-05-25T12:16:31;102275.13;;;17.36;68.84
44872;BME280;30602;51.060;17.226;2023-05-25T12:20:01;102272.90;;;17.45;68.33
44872;BME280;30602;51.060;17.226;2023-05-25T12:23:57;102264.45;;;17.43;67.99
44872;BME280;30602;51.060;17.226;2023-05-25T12:27:34;102261.66;;;17.62;69.00
44872;BME280;30602;51.060;17.226;2023-05-25T12:31:28;102264.60;;;17.75;68.61
44872;BME280;30602;51.060;17.226;2023-05-25T12:35:08;102261.59;;;17.72;67.33
44872;BME280;30602;51.060;17.226;2023-05-25T12:38:57;102259.54;;;17.65;68.10
44872;BME280;30602;51.060;17.226;2023-05-25T12:42:56;102254.91;;;17.62;67.57
44872;BME280;30602;51.060;17.226;2023-05-25T12:46:35;102246.45;;;17.62;68.27
44872;BME280;30602;51.060;17.226;2023-05-25T12:50:21;102245.60;;;17.93;69.32
44872;BME280;30602;51.060;17.226;2023-05-25T12:54:07;102234.09;;;18.05;67.42
44872;BME280;30602;51.060;17.226;2023-05-25T12:58:05;102237.82;;;18.03;65.62
44872;BME280;30602;51.060;17.226;2023-05-25T13:01:53;102230.90;;;18.05;66.55
44872;BME280;30602;51.060;17.226;2023-05-25T13:05:23;102226.37;;;18.11;66.45
44872;BME280;30602;51.060;17.226;2023-05-25T13:09:05;102231.01;;;18.15;67.01
44872;BME280;30602;51.060;17.226;2023-05-25T13:13:16;102231.77;;;18.06;67.34
44872;BME280;30602;51.060;17.226;2023-05-25T13:17:00;102236.35;;;18.00;68.54
44872;BME280;30602;51.060;17.226;2023-05-25T13:20:32;102234.14;;;17.99;69.80
44872;BME280;30602;51.060;17.226;2023-05-25T13:23:56;102228.23;;;17.97;69.95
44872;BME280;30602;51.060;17.226;2023-05-25T13:27:21;102233.95;;;17.83;67.57
44872;BME280;30602;51.060;17.226;2023-05-25T13:30:50;102228.44;;;17.77;67.44
44872;BME280;30602;51.060;17.226;2023-05-25T13:34:35;102227.00;;;17.82;68.22
44872;BME280;30602;51.060;17.226;2023-05-25T13:37:57;102223.16;;;17.84;68.87
44872;BME280;30602;51.060;17.226;2023-05-25T13:41:21;102217.05;;;17.99;67.48
44872;BME280;30602;51.060;17.226;2023-05-25T13:44:47;102208.88;;;18.28;66.88
44872;BME280;30602;51.060;17.226;2023-05-25T13:48:08;102207.18;;;18.27;64.26
44872;BME280;30602;51.060;17.226;2023-05-25T13:51:49;102199.23;;;18.46;65.98
44872;BME280;30602;51.060;17.226;2023-05-25T13:55:20;102191.74;;;18.65;67.94
44872;BME280;30602;51.060;17.226;2023-05-25T14:00:36;102191.62;;;18.77;66.86
44872;BME280;30602;51.060;17.226;2023-05-25T14:04:07;102192.36;;;18.83;64.49
44872;BME280;30602;51.060;17.226;2023-05-25T14:08:13;102185.90;;;18.81;65.39
44872;BME280;30602;51.060;17.226;2023-05-25T14:11:59;102182.45;;;18.62;65.58
44872;BME280;30602;51.060;17.226;2023-05-25T14:15:45;102185.46;;;18.48;64.44
44872;BME280;30602;51.060;17.226;2023-05-25T14:19:30;102180.23;;;18.52;67.49
44872;BME280;30602;51.060;17.226;2023-05-25T14:23:15;102182.20;;;18.39;67.81
44872;BME280;30602;51.060;17.226;2023-05-25T14:27:46;102174.52;;;18.53;69.17
44872;BME280;30602;51.060;17.226;2023-05-25T14:31:41;102179.54;;;18.75;67.18
44872;BME280;30602;51.060;17.226;2023-05-25T14:35:05;102174.42;;;19.15;63.85
44872;BME280;30602;51.060;17.226;2023-05-25T14:38:27;102168.13;;;19.34;61.46
44872;BME280;30602;51.060;17.226;2023-05-25T14:42:28;102167.23;;;19.43;62.90
44872;BME280;30602;51.060;17.226;2023-05-25T14:46:48;102160.21;;;19.27;62.20
44872;BME280;30602;51.060;17.226;2023-05-25T14:50:37;102163.17;;;19.59;63.01
44872;BME280;30602;51.060;17.226;2023-05-25T14:54:33;102164.38;;;19.75;61.16
44872;BME280;30602;51.060;17.226;2023-05-25T14:59:10;102164.41;;;19.98;59.45
44872;BME280;30602;51.060;17.226;2023-05-25T15:03:13;102152.18;;;19.86;60.40
44872;BME280;30602;51.060;17.226;2023-05-25T15:06:35;102156.86;;;20.35;60.81
44872;BME280;30602;51.060;17.226;2023-05-25T15:10:24;102159.23;;;20.37;58.08
44872;BME280;30602;51.060;17.226;2023-05-25T15:14:11;102156.33;;;20.19;58.64
44872;BME280;30602;51.060;17.226;2023-05-25T15:17:37;102152.18;;;20.02;59.96
44872;BME280;30602;51.060;17.226;2023-05-25T15:21:23;102155.02;;;19.98;60.29
44872;BME280;30602;51.060;17.226;2023-05-25T15:25:11;102155.09;;;19.84;60.84
44872;BME280;30602;51.060;17.226;2023-05-25T15:28:55;102160.87;;;19.74;62.95
44872;BME280;30602;51.060;17.226;2023-05-25T15:32:44;102158.41;;;19.68;62.32
44872;BME280;30602;51.060;17.226;2023-05-25T15:36:41;102162.09;;;19.43;62.06
44872;BME280;30602;51.060;17.226;2023-05-25T15:41:00;102161.65;;;19.12;64.29
44872;BME280;30602;51.060;17.226;2023-05-25T15:44:35;102155.98;;;18.86;64.89
44872;BME280;30602;51.060;17.226;2023-05-25T15:48:01;102153.35;;;18.80;65.09
44872;BME280;30602;51.060;17.226;2023-05-25T15:52:04;102153.41;;;18.93;65.62
44872;BME280;30602;51.060;17.226;2023-05-25T15:55:50;102149.04;;;18.66;63.95
44872;BME280;30602;51.060;17.226;2023-05-25T15:59:36;102151.01;;;18.47;67.20
44872;BME280;30602;51.060;17.226;2023-05-25T16:03:19;102146.34;;;18.54;66.16
44872;BME280;30602;51.060;17.226;2023-05-25T16:07:10;102147.75;;;18.40;65.19
44872;BME280;30602;51.060;17.226;2023-05-25T16:10:31;102146.38;;;18.25;67.19
44872;BME280;30602;51.060;17.226;2023-05-25T16:14:06;102145.48;;;18.14;67.84
44872;BME280;30602;51.060;17.226;2023-05-25T16:17:27;102145.95;;;18.03;69.95
44872;BME280;30602;51.060;17.226;2023-05-25T16:21:18;102148.06;;;17.98;69.46
44872;BME280;30602;51.060;17.226;2023-05-25T16:25:12;102139.65;;;18.34;67.44
44872;BME280;30602;51.060;17.226;2023-05-25T16:28:55;102134.35;;;18.66;65.43
44872;BME280;30602;51.060;17.226;2023-05-25T16:32:42;102141.46;;;18.78;65.48
44872;BME280;30602;51.060;17.226;2023-05-25T16:36:24;102140.83;;;18.81;67.62
44872;BME280;30602;51.060;17.226;2023-05-25T16:40:15;102140.21;;;18.71;64.25
44872;BME280;30602;51.060;17.226;2023-05-25T16:44:19;102138.25;;;18.91;64.68
44872;BME280;30602;51.060;17.226;2023-05-25T16:48:25;102127.02;;;18.96;64.00
44872;BME280;30602;51.060;17.226;2023-05-25T16:51:53;102129.82;;;18.69;66.99
44872;BME280;30602;51.060;17.226;2023-05-25T16:55:34;102129.78;;;18.63;65.21
44872;BME280;30602;51.060;17.226;2023-05-25T16:58:53;102135.52;;;18.44;67.01
44872;BME280;30602;51.060;17.226;2023-05-25T17:02:38;102136.49;;;18.24;66.06
44872;BME280;30602;51.060;17.226;2023-05-25T17:06:00;102141.30;;;17.94;67.66
44872;BME280;30602;51.060;17.226;2023-05-25T17:09:46;102138.10;;;17.90;68.60
44872;BME280;30602;51.060;17.226;2023-05-25T17:13:52;102135.40;;;17.93;69.89
44872;BME280;30602;51.060;17.226;2023-05-25T17:17:38;102135.66;;;17.89;68.93
44872;BME280;30602;51.060;17.226;2023-05-25T17:21:24;102134.28;;;17.87;70.70
44872;BME280;30602;51.060;17.226;2023-05-25T17:25:43;102130.64;;;17.86;69.39
44872;BME280;30602;51.060;17.226;2023-05-25T17:29:51;102137.05;;;17.87;70.65
44872;BME280;30602;51.060;17.226;2023-05-25T17:33:46;102132.03;;;17.87;68.91
44872;BME280;30602;51.060;17.226;2023-05-25T17:37:11;102128.29;;;17.86;68.12
44872;BME280;30602;51.060;17.226;2023-05-25T17:40:56;102126.98;;;17.82;70.66
44872;BME280;30602;51.060;17.226;2023-05-25T17:44:17;102128.87;;;17.65;75.84
44872;BME280;30602;51.060;17.226;2023-05-25T17:47:39;102132.73;;;17.52;71.93
44872;BME280;30602;51.060;17.226;2023-05-25T17:51:01;102130.97;;;17.39;75.15
44872;BME280;30602;51.060;17.226;2023-05-25T17:54:26;102133.70;;;17.22;77.27
44872;BME280;30602;51.060;17.226;2023-05-25T17:57:49;102134.63;;;16.98;78.39
44872;BME280;30602;51.060;17.226;2023-05-25T18:05:14;102132.45;;;16.71;82.02
44872;BME280;30602;51.060;17.226;2023-05-25T18:08:55;102128.75;;;16.51;83.19
44872;BME280;30602;51.060;17.226;2023-05-25T18:12:26;102129.14;;;16.47;83.63
44872;BME280;30602;51.060;17.226;2023-05-25T18:15:45;102132.98;;;16.21;84.51
44872;BME280;30602;51.060;17.226;2023-05-25T18:19:33;102124.27;;;16.05;84.13
44872;BME280;30602;51.060;17.226;2023-05-25T18:22:55;102132.27;;;15.76;85.90
44872;BME280;30602;51.060;17.226;2023-05-25T18:26:19;102138.35;;;15.57;87.19
44872;BME280;30602;51.060;17.226;2023-05-25T18:30:27;102143.02;;;15.39;86.95
44872;BME280;30602;51.060;17.226;2023-05-25T18:38:06;102147.23;;;15.02;89.35
44872;BME280;30602;51.060;17.226;2023-05-25T18:41:42;102136.11;;;14.72;89.78
44872;BME280;30602;51.060;17.226;2023-05-25T18:45:25;102151.91;;;14.65;89.86
44872;BME280;30602;51.060;17.226;2023-05-25T18:48:48;102155.31;;;14.54;90.42
44872;BME280;30602;51.060;17.226;2023-05-25T18:52:32;102151.06;;;14.37;91.30
44872;BME280;30602;51.060;17.226;2023-05-25T18:55:56;102162.63;;;14.25;92.27
44872;BME280;30602;51.060;17.226;2023-05-25T18:59:43;102166.13;;;14.10;93.09
44872;BME280;30602;51.060;17.226;2023-05-25T19:03:25;102170.05;;;14.03;93.32
44872;BME280;30602;51.060;17.226;2023-05-25T19:06:51;102171.66;;;13.91;94.02
44872;BME280;30602;51.060;17.226;2023-05-25T19:10:12;102175.99;;;13.75;94.13
44872;BME280;30602;51.060;17.226;2023-05-25T19:14:17;102179.98;;;13.72;94.22
44872;BME280;30602;51.060;17.226;2023-05-25T19:18:03;102183.16;;;13.66;94.56
44872;BME280;30602;51.060;17.226;2023-05-25T19:21:48;102187.31;;;13.59;94.95
44872;BME280;30602;51.060;17.226;2023-05-25T19:25:11;102187.19;;;13.41;95.52
44872;BME280;30602;51.060;17.226;2023-05-25T19:28:54;102193.25;;;13.28;95.90
44872;BME280;30602;51.060;17.226;2023-05-25T19:32:46;102192.44;;;13.23;96.27
44872;BME280;30602;51.060;17.226;2023-05-25T19:36:39;102197.54;;;13.17;96.48
44872;BME280;30602;51.060;17.226;2023-05-25T19:40:44;102196.94;;;13.10;96.78
44872;BME280;30602;51.060;17.226;2023-05-25T19:45:06;102195.30;;;13.00;97.41
44872;BME280;30602;51.060;17.226;2023-05-25T19:48:43;102200.38;;;12.83;97.42
44872;BME280;30602;51.060;17.226;2023-05-25T19:52:31;102199.84;;;12.70;97.86
44872;BME280;30602;51.060;17.226;2023-05-25T19:56:14;102202.37;;;12.58;98.19
44872;BME280;30602;51.060;17.226;2023-05-25T20:00:27;102207.55;;;12.35;97.93
44872;BME280;30602;51.060;17.226;2023-05-25T20:04:22;102211.88;;;12.22;98.70
44872;BME280;30602;51.060;17.226;2023-05-25T20:07:51;102212.89;;;12.03;98.46
44872;BME280;30602;51.060;17.226;2023-05-25T20:11:53;102217.37;;;11.96;99.02
44872;BME280;30602;51.060;17.226;2023-05-25T20:15:33;102221.59;;;11.92;98.85